Terminal Aerodrome Forecast
Issued by NWS Paducah, KY

Home | Current Version | Previous Version | Text Only | Print | Product List | Glossary On
Versions: 1 2 3 4 5 6 7 8 9 10 11 12 13 14 15 16 17 18 19 20
000
FTUS43 KPAH 021720
TAFEVV
TAF
KEVV 021720Z 0218/0318 33006KT P6SM OVC022
     FM030300 34006KT P6SM OVC030
      TEMPO 0309/0312 5SM BR
     FM031300 34006KT P6SM BKN022 OVC040=

USA.gov is the U.S. government's official web portal to all federal, state and local government web resources and services.